sensor_id;sensor_type;location;lat;lon;timestamp;temperature;humidity
27368;DHT22;14839;48.106;11.618;2024-02-26T05:00:36;1.10;94.60
27368;DHT22;14839;48.106;11.618;2024-02-26T05:03:01;1.10;94.60
27368;DHT22;14839;48.106;11.618;2024-02-26T05:05:27;1.10;94.60
27368;DHT22;14839;48.106;11.618;2024-02-26T05:07:52;1.10;94.60
27368;DHT22;14839;48.106;11.618;2024-02-26T05:10:18;1.10;94.60
27368;DHT22;14839;48.106;11.618;2024-02-26T05:12:43;1.10;94.60
27368;DHT22;14839;48.106;11.618;2024-02-26T05:15:10;1.10;94.60
27368;DHT22;14839;48.106;11.618;2024-02-26T05:17:35;1.10;94.60
27368;DHT22;14839;48.106;11.618;2024-02-26T05:20:01;1.10;94.60
27368;DHT22;14839;48.106;11.618;2024-02-26T05:22:26;1.10;94.60
27368;DHT22;14839;48.106;11.618;2024-02-26T05:24:52;1.10;94.60
27368;DHT22;14839;48.106;11.618;2024-02-26T05:27:17;1.10;94.60
27368;DHT22;14839;48.106;11.618;2024-02-26T05:29:43;1.10;94.60
27368;DHT22;14839;48.106;11.618;2024-02-26T05:32:09;1.10;94.60
27368;DHT22;14839;48.106;11.618;2024-02-26T05:34:34;1.10;94.60
27368;DHT22;14839;48.106;11.618;2024-02-26T05:37:00;1.10;94.60
27368;DHT22;14839;48.106;11.618;2024-02-26T05:39:25;1.10;94.60
27368;DHT22;14839;48.106;11.618;2024-02-26T05:41:51;1.10;94.60
27368;DHT22;14839;48.106;11.618;2024-02-26T05:44:16;1.10;94.60
27368;DHT22;14839;48.106;11.618;2024-02-26T05:46:42;1.20;94.60
27368;DHT22;14839;48.106;11.618;2024-02-26T05:49:08;1.20;94.60
27368;DHT22;14839;48.106;11.618;2024-02-26T05:51:33;1.20;94.60
27368;DHT22;14839;48.106;11.618;2024-02-26T05:53:59;1.20;94.60
27368;DHT22;14839;48.106;11.618;2024-02-26T05:56:24;1.30;94.60
27368;DHT22;14839;48.106;11.618;2024-02-26T05:58:50;1.30;94.60
27368;DHT22;14839;48.106;11.618;2024-02-26T06:01:17;1.40;94.60
27368;DHT22;14839;48.106;11.618;2024-02-26T06:03:43;1.40;94.60
27368;DHT22;14839;48.106;11.618;2024-02-26T06:06:13;1.50;94.60
27368;DHT22;14839;48.106;11.618;2024-02-26T06:08:40;1.60;94.60
27368;DHT22;14839;48.106;11.618;2024-02-26T06:11:06;1.70;94.60
27368;DHT22;14839;48.106;11.618;2024-02-26T06:13:32;1.80;94.60
27368;DHT22;14839;48.106;11.618;2024-02-26T06:15:58;1.90;94.60
27368;DHT22;14839;48.106;11.618;2024-02-26T06:18:23;2.00;94.60
27368;DHT22;14839;48.106;11.618;2024-02-26T06:20:49;2.10;94.60
27368;DHT22;14839;48.106;11.618;2024-02-26T06:23:15;2.30;94.60
27368;DHT22;14839;48.106;11.618;2024-02-26T06:25:41;2.40;94.60
27368;DHT22;14839;48.106;11.618;2024-02-26T06:28:08;2.50;94.60
27368;DHT22;14839;48.106;11.618;2024-02-26T06:30:34;2.70;94.60
27368;DHT22;14839;48.106;11.618;2024-02-26T06:32:59;2.80;94.60
27368;DHT22;14839;48.106;11.618;2024-02-26T06:35:25;2.90;94.60
27368;DHT22;14839;48.106;11.618;2024-02-26T06:37:51;3.00;94.60
27368;DHT22;14839;48.106;11.618;2024-02-26T06:40:21;3.10;94.60
27368;DHT22;14839;48.106;11.618;2024-02-26T06:42:47;3.20;94.60
27368;DHT22;14839;48.106;11.618;2024-02-26T06:45:12;3.40;94.60
27368;DHT22;14839;48.106;11.618;2024-02-26T06:47:38;3.60;94.60
27368;DHT22;14839;48.106;11.618;2024-02-26T06:50:04;3.70;94.20
27368;DHT22;14839;48.106;11.618;2024-02-26T06:52:29;3.80;93.70
27368;DHT22;14839;48.106;11.618;2024-02-26T06:54:55;3.80;93.60
27368;DHT22;14839;48.106;11.618;2024-02-26T06:57:20;3.90;94.60
27368;DHT22;14839;48.106;11.618;2024-02-26T06:59:46;4.00;94.60
27368;DHT22;14839;48.106;11.618;2024-02-26T07:02:15;4.00;94.10
27368;DHT22;14839;48.106;11.618;2024-02-26T07:04:44;4.10;93.40
27368;DHT22;14839;48.106;11.618;2024-02-26T07:07:10;4.20;92.80
27368;DHT22;14839;48.106;11.618;2024-02-26T07:09:36;4.40;91.80
27368;DHT22;14839;48.106;11.618;2024-02-26T07:12:02;4.50;91.20
27368;DHT22;14839;48.106;11.618;2024-02-26T07:14:28;4.60;91.40
27368;DHT22;14839;48.106;11.618;2024-02-26T07:16:53;4.80;91.60
27368;DHT22;14839;48.106;11.618;2024-02-26T07:19:19;4.90;91.30
27368;DHT22;14839;48.106;11.618;2024-02-26T07:21:44;5.00;91.50
27368;DHT22;14839;48.106;11.618;2024-02-26T07:24:10;5.10;91.50
27368;DHT22;14839;48.106;11.618;2024-02-26T07:26:36;5.10;92.20
27368;DHT22;14839;48.106;11.618;2024-02-26T07:29:01;5.20;91.50
27368;DHT22;14839;48.106;11.618;2024-02-26T07:31:27;5.40;91.30
27368;DHT22;14839;48.106;11.618;2024-02-26T07:33:52;5.40;91.30
27368;DHT22;14839;48.106;11.618;2024-02-26T07:36:18;5.40;90.40
27368;DHT22;14839;48.106;11.618;2024-02-26T07:38:44;5.50;90.30
27368;DHT22;14839;48.106;11.618;2024-02-26T07:41:10;5.60;90.10
27368;DHT22;14839;48.106;11.618;2024-02-26T07:43:36;5.70;89.80
27368;DHT22;14839;48.106;11.618;2024-02-26T07:46:02;5.80;89.90
27368;DHT22;14839;48.106;11.618;2024-02-26T07:48:28;5.90;90.90
27368;DHT22;14839;48.106;11.618;2024-02-26T07:50:53;6.00;90.60
27368;DHT22;14839;48.106;11.618;2024-02-26T07:53:19;6.20;89.90
27368;DHT22;14839;48.106;11.618;2024-02-26T07:55:44;6.30;89.90
27368;DHT22;14839;48.106;11.618;2024-02-26T07:58:10;6.50;88.70
27368;DHT22;14839;48.106;11.618;2024-02-26T08:00:35;6.80;87.50
27368;DHT22;14839;48.106;11.618;2024-02-26T08:03:01;6.90;83.90
27368;DHT22;14839;48.106;11.618;2024-02-26T08:05:26;7.10;84.20
27368;DHT22;14839;48.106;11.618;2024-02-26T08:07:52;6.80;84.40
27368;DHT22;14839;48.106;11.618;2024-02-26T08:10:17;7.00;83.30
27368;DHT22;14839;48.106;11.618;2024-02-26T08:12:44;6.70;84.20
27368;DHT22;14839;48.106;11.618;2024-02-26T08:15:10;6.40;85.40
27368;DHT22;14839;48.106;11.618;2024-02-26T08:17:36;6.30;86.80
27368;DHT22;14839;48.106;11.618;2024-02-26T08:20:02;6.40;86.60
27368;DHT22;14839;48.106;11.618;2024-02-26T08:22:28;6.50;86.20
27368;DHT22;14839;48.106;11.618;2024-02-26T08:24:53;6.60;86.20
27368;DHT22;14839;48.106;11.618;2024-02-26T08:27:19;6.60;86.50
27368;DHT22;14839;48.106;11.618;2024-02-26T08:29:45;6.70;86.80
27368;DHT22;14839;48.106;11.618;2024-02-26T08:32:10;6.80;86.90
27368;DHT22;14839;48.106;11.618;2024-02-26T08:34:36;6.90;85.30
27368;DHT22;14839;48.106;11.618;2024-02-26T08:37:02;7.10;85.40
27368;DHT22;14839;48.106;11.618;2024-02-26T08:39:27;7.40;84.40
27368;DHT22;14839;48.106;11.618;2024-02-26T08:41:53;7.30;85.40
27368;DHT22;14839;48.106;11.618;2024-02-26T08:44:19;7.40;84.80
27368;DHT22;14839;48.106;11.618;2024-02-26T08:46:45;7.60;84.80
27368;DHT22;14839;48.106;11.618;2024-02-26T08:49:11;7.80;83.60
27368;DHT22;14839;48.106;11.618;2024-02-26T08:51:42;8.10;83.80
27368;DHT22;14839;48.106;11.618;2024-02-26T08:54:08;8.50;82.90
27368;DHT22;14839;48.106;11.618;2024-02-26T08:56:33;8.80;80.50
27368;DHT22;14839;48.106;11.618;2024-02-26T08:58:59;9.10;77.20
27368;DHT22;14839;48.106;11.618;2024-02-26T09:01:29;9.30;76.00
27368;DHT22;14839;48.106;11.618;2024-02-26T09:03:54;9.30;77.30
27368;DHT22;14839;48.106;11.618;2024-02-26T09:06:21;9.40;77.30
27368;DHT22;14839;48.106;11.618;2024-02-26T09:08:47;9.30;76.40
27368;DHT22;14839;48.106;11.618;2024-02-26T09:11:13;9.50;75.50
27368;DHT22;14839;48.106;11.618;2024-02-26T09:13:38;9.40;73.90
27368;DHT22;14839;48.106;11.618;2024-02-26T09:16:05;9.40;73.90
27368;DHT22;14839;48.106;11.618;2024-02-26T09:18:31;9.50;73.70
27368;DHT22;14839;48.106;11.618;2024-02-26T09:20:56;9.50;73.40
27368;DHT22;14839;48.106;11.618;2024-02-26T09:23:22;9.60;72.50
27368;DHT22;14839;48.106;11.618;2024-02-26T09:25:48;9.80;72.50
27368;DHT22;14839;48.106;11.618;2024-02-26T09:28:13;10.00;73.00
27368;DHT22;14839;48.106;11.618;2024-02-26T09:30:42;10.10;72.80
27368;DHT22;14839;48.106;11.618;2024-02-26T09:33:07;10.10;71.90
27368;DHT22;14839;48.106;11.618;2024-02-26T09:35:33;10.00;71.60
27368;DHT22;14839;48.106;11.618;2024-02-26T09:37:59;10.00;72.10
27368;DHT22;14839;48.106;11.618;2024-02-26T09:40:25;9.90;73.10
27368;DHT22;14839;48.106;11.618;2024-02-26T09:42:53;10.10;72.70
27368;DHT22;14839;48.106;11.618;2024-02-26T09:45:25;10.10;73.10
27368;DHT22;14839;48.106;11.618;2024-02-26T09:47:55;10.20;72.70
27368;DHT22;14839;48.106;11.618;2024-02-26T09:50:21;10.30;72.10
27368;DHT22;14839;48.106;11.618;2024-02-26T09:52:48;10.50;71.80
27368;DHT22;14839;48.106;11.618;2024-02-26T09:55:15;10.50;71.20
27368;DHT22;14839;48.106;11.618;2024-02-26T09:57:45;10.50;71.00
27368;DHT22;14839;48.106;11.618;2024-02-26T10:00:16;10.70;72.40
27368;DHT22;14839;48.106;11.618;2024-02-26T10:02:44;10.50;71.00
27368;DHT22;14839;48.106;11.618;2024-02-26T10:05:12;10.40;72.40
27368;DHT22;14839;48.106;11.618;2024-02-26T10:07:40;10.50;72.50
27368;DHT22;14839;48.106;11.618;2024-02-26T10:10:08;10.40;72.80
27368;DHT22;14839;48.106;11.618;2024-02-26T10:12:34;10.20;72.50
27368;DHT22;14839;48.106;11.618;2024-02-26T10:14:59;10.20;73.00
27368;DHT22;14839;48.106;11.618;2024-02-26T10:17:25;10.30;71.90
27368;DHT22;14839;48.106;11.618;2024-02-26T10:19:51;10.30;71.80
27368;DHT22;14839;48.106;11.618;2024-02-26T10:22:22;10.30;71.90
27368;DHT22;14839;48.106;11.618;2024-02-26T10:24:47;10.40;70.90
27368;DHT22;14839;48.106;11.618;2024-02-26T10:27:13;10.20;70.00
27368;DHT22;14839;48.106;11.618;2024-02-26T10:29:38;10.20;69.40
27368;DHT22;14839;48.106;11.618;2024-02-26T10:32:04;10.20;68.60
27368;DHT22;14839;48.106;11.618;2024-02-26T10:34:31;10.40;69.10
27368;DHT22;14839;48.106;11.618;2024-02-26T10:36:56;10.50;69.10
27368;DHT22;14839;48.106;11.618;2024-02-26T10:39:22;10.70;69.10
27368;DHT22;14839;48.106;11.618;2024-02-26T10:41:47;11.10;68.90
27368;DHT22;14839;48.106;11.618;2024-02-26T10:44:13;11.40;66.20
27368;DHT22;14839;48.106;11.618;2024-02-26T10:46:40;11.50;65.50
27368;DHT22;14839;48.106;11.618;2024-02-26T10:49:13;11.60;64.10
27368;DHT22;14839;48.106;11.618;2024-02-26T10:51:40;11.80;63.50
27368;DHT22;14839;48.106;11.618;2024-02-26T10:54:09;11.80;64.00
27368;DHT22;14839;48.106;11.618;2024-02-26T10:56:41;12.00;63.80
27368;DHT22;14839;48.106;11.618;2024-02-26T10:59:09;12.40;63.70
27368;DHT22;14839;48.106;11.618;2024-02-26T11:01:35;12.60;62.30
27368;DHT22;14839;48.106;11.618;2024-02-26T11:04:04;12.80;61.00
27368;DHT22;14839;48.106;11.618;2024-02-26T11:06:30;12.80;60.10
27368;DHT22;14839;48.106;11.618;2024-02-26T11:08:56;13.10;60.80
27368;DHT22;14839;48.106;11.618;2024-02-26T11:11:24;13.50;58.80
27368;DHT22;14839;48.106;11.618;2024-02-26T11:13:51;13.10;57.90
27368;DHT22;14839;48.106;11.618;2024-02-26T11:16:19;12.80;58.80
27368;DHT22;14839;48.106;11.618;2024-02-26T11:18:49;13.20;60.70
27368;DHT22;14839;48.106;11.618;2024-02-26T11:21:18;13.90;58.50
27368;DHT22;14839;48.106;11.618;2024-02-26T11:23:45;14.20;58.20
27368;DHT22;14839;48.106;11.618;2024-02-26T11:26:14;14.10;56.30
27368;DHT22;14839;48.106;11.618;2024-02-26T11:28:40;14.20;57.00
27368;DHT22;14839;48.106;11.618;2024-02-26T11:31:07;13.80;57.60
27368;DHT22;14839;48.106;11.618;2024-02-26T11:33:34;13.60;58.70
27368;DHT22;14839;48.106;11.618;2024-02-26T11:36:02;13.80;59.50
27368;DHT22;14839;48.106;11.618;2024-02-26T11:38:28;13.90;58.50
27368;DHT22;14839;48.106;11.618;2024-02-26T11:40:54;13.90;58.40
27368;DHT22;14839;48.106;11.618;2024-02-26T11:44:11;14.30;59.50
27368;DHT22;14839;48.106;11.618;2024-02-26T11:46:42;14.10;61.40
27368;DHT22;14839;48.106;11.618;2024-02-26T11:51:53;14.10;57.00
27368;DHT22;14839;48.106;11.618;2024-02-26T11:57:45;14.50;54.70
27368;DHT22;14839;48.106;11.618;2024-02-26T12:00:15;14.00;54.70
27368;DHT22;14839;48.106;11.618;2024-02-26T12:02:50;13.90;56.00
27368;DHT22;14839;48.106;11.618;2024-02-26T12:05:23;14.00;56.10
27368;DHT22;14839;48.106;11.618;2024-02-26T12:08:04;14.40;56.60
27368;DHT22;14839;48.106;11.618;2024-02-26T12:10:36;14.50;55.40
27368;DHT22;14839;48.106;11.618;2024-02-26T12:13:11;14.60;53.60
27368;DHT22;14839;48.106;11.618;2024-02-26T12:15:42;14.60;53.30
27368;DHT22;14839;48.106;11.618;2024-02-26T12:18:09;14.60;53.50
27368;DHT22;14839;48.106;11.618;2024-02-26T12:20:36;14.40;54.70
27368;DHT22;14839;48.106;11.618;2024-02-26T12:23:03;14.40;53.80
27368;DHT22;14839;48.106;11.618;2024-02-26T12:25:30;14.40;54.40
27368;DHT22;14839;48.106;11.618;2024-02-26T12:27:57;14.30;52.70
27368;DHT22;14839;48.106;11.618;2024-02-26T12:30:23;14.20;53.30
27368;DHT22;14839;48.106;11.618;2024-02-26T12:32:50;13.90;54.20
27368;DHT22;14839;48.106;11.618;2024-02-26T12:35:16;14.00;53.90
27368;DHT22;14839;48.106;11.618;2024-02-26T12:37:43;14.20;53.30
27368;DHT22;14839;48.106;11.618;2024-02-26T12:40:09;14.30;53.80
27368;DHT22;14839;48.106;11.618;2024-02-26T12:42:36;14.40;53.30
27368;DHT22;14839;48.106;11.618;2024-02-26T12:45:06;14.50;53.60
27368;DHT22;14839;48.106;11.618;2024-02-26T12:47:45;14.30;51.30
27368;DHT22;14839;48.106;11.618;2024-02-26T12:50:17;13.90;52.30
27368;DHT22;14839;48.106;11.618;2024-02-26T12:52:45;13.80;53.90
27368;DHT22;14839;48.106;11.618;2024-02-26T12:55:14;13.80;54.10
27368;DHT22;14839;48.106;11.618;2024-02-26T12:57:41;13.80;54.10
27368;DHT22;14839;48.106;11.618;2024-02-26T13:00:12;13.90;51.40
27368;DHT22;14839;48.106;11.618;2024-02-26T13:02:40;14.20;50.40
27368;DHT22;14839;48.106;11.618;2024-02-26T13:05:08;14.50;50.80
27368;DHT22;14839;48.106;11.618;2024-02-26T13:07:34;14.70;53.80
27368;DHT22;14839;48.106;11.618;2024-02-26T13:10:00;15.00;55.40
27368;DHT22;14839;48.106;11.618;2024-02-26T13:12:26;14.80;58.10
27368;DHT22;14839;48.106;11.618;2024-02-26T13:15:04;14.70;60.10
27368;DHT22;14839;48.106;11.618;2024-02-26T13:17:33;14.70;61.10
27368;DHT22;14839;48.106;11.618;2024-02-26T13:19:59;14.30;63.50
27368;DHT22;14839;48.106;11.618;2024-02-26T13:22:25;14.10;63.80
27368;DHT22;14839;48.106;11.618;2024-02-26T13:24:55;14.10;63.50
27368;DHT22;14839;48.106;11.618;2024-02-26T13:27:25;13.90;63.20
27368;DHT22;14839;48.106;11.618;2024-02-26T13:30:11;13.90;63.50
27368;DHT22;14839;48.106;11.618;2024-02-26T13:32:38;13.80;62.80
27368;DHT22;14839;48.106;11.618;2024-02-26T13:35:08;13.80;63.80
27368;DHT22;14839;48.106;11.618;2024-02-26T13:37:35;13.80;63.70
27368;DHT22;14839;48.106;11.618;2024-02-26T13:40:04;13.80;61.90
27368;DHT22;14839;48.106;11.618;2024-02-26T13:42:30;13.80;63.50
27368;DHT22;14839;48.106;11.618;2024-02-26T13:44:56;13.70;65.50
27368;DHT22;14839;48.106;11.618;2024-02-26T13:47:22;13.60;65.60
27368;DHT22;14839;48.106;11.618;2024-02-26T13:49:47;13.50;63.20
27368;DHT22;14839;48.106;11.618;2024-02-26T13:52:13;13.50;64.70
27368;DHT22;14839;48.106;11.618;2024-02-26T13:54:39;13.40;63.50
27368;DHT22;14839;48.106;11.618;2024-02-26T13:57:06;13.50;62.80
27368;DHT22;14839;48.106;11.618;2024-02-26T13:59:31;13.50;62.50
27368;DHT22;14839;48.106;11.618;2024-02-26T14:01:57;13.40;62.00
27368;DHT22;14839;48.106;11.618;2024-02-26T14:04:22;13.50;63.10
27368;DHT22;14839;48.106;11.618;2024-02-26T14:06:48;13.30;64.00
27368;DHT22;14839;48.106;11.618;2024-02-26T14:09:14;13.10;66.20
27368;DHT22;14839;48.106;11.618;2024-02-26T14:11:47;12.90;67.30
27368;DHT22;14839;48.106;11.618;2024-02-26T14:14:13;12.90;67.60
27368;DHT22;14839;48.106;11.618;2024-02-26T14:16:39;13.00;67.30
27368;DHT22;14839;48.106;11.618;2024-02-26T14:19:04;13.10;67.00
27368;DHT22;14839;48.106;11.618;2024-02-26T14:21:30;13.00;66.40
27368;DHT22;14839;48.106;11.618;2024-02-26T14:23:56;13.00;67.30
27368;DHT22;14839;48.106;11.618;2024-02-26T14:26:24;13.00;67.40
27368;DHT22;14839;48.106;11.618;2024-02-26T14:28:50;13.00;68.30
27368;DHT22;14839;48.106;11.618;2024-02-26T14:31:19;13.00;68.90
27368;DHT22;14839;48.106;11.618;2024-02-26T14:33:45;12.90;70.00
27368;DHT22;14839;48.106;11.618;2024-02-26T14:36:10;13.00;69.80
27368;DHT22;14839;48.106;11.618;2024-02-26T14:38:36;13.00;69.40
27368;DHT22;14839;48.106;11.618;2024-02-26T14:41:02;13.00;68.90
27368;DHT22;14839;48.106;11.618;2024-02-26T14:43:29;13.00;67.10
27368;DHT22;14839;48.106;11.618;2024-02-26T14:45:55;13.00;66.80
27368;DHT22;14839;48.106;11.618;2024-02-26T14:48:21;12.90;67.10
27368;DHT22;14839;48.106;11.618;2024-02-26T14:50:46;12.80;66.70
27368;DHT22;14839;48.106;11.618;2024-02-26T14:53:12;12.70;67.00
27368;DHT22;14839;48.106;11.618;2024-02-26T14:55:37;12.70;67.40
27368;DHT22;14839;48.106;11.618;2024-02-26T14:58:04;12.70;67.70
27368;DHT22;14839;48.106;11.618;2024-02-26T15:00:29;12.70;68.50
27368;DHT22;14839;48.106;11.618;2024-02-26T15:02:59;12.60;69.50
27368;DHT22;14839;48.106;11.618;2024-02-26T15:05:24;12.50;69.70
27368;DHT22;14839;48.106;11.618;2024-02-26T15:07:50;12.40;70.00
27368;DHT22;14839;48.106;11.618;2024-02-26T15:10:16;12.30;70.40
27368;DHT22;14839;48.106;11.618;2024-02-26T15:12:41;12.20;70.90
27368;DHT22;14839;48.106;11.618;2024-02-26T15:15:07;12.20;71.00
27368;DHT22;14839;48.106;11.618;2024-02-26T15:17:33;12.10;70.90
27368;DHT22;14839;48.106;11.618;2024-02-26T15:20:00;12.10;70.30
27368;DHT22;14839;48.106;11.618;2024-02-26T15:22:26;12.00;70.90
27368;DHT22;14839;48.106;11.618;2024-02-26T15:24:52;12.00;70.70
27368;DHT22;14839;48.106;11.618;2024-02-26T15:27:18;12.00;71.90
27368;DHT22;14839;48.106;11.618;2024-02-26T15:29:43;11.90;71.20
27368;DHT22;14839;48.106;11.618;2024-02-26T15:32:10;11.80;71.30
27368;DHT22;14839;48.106;11.618;2024-02-26T15:34:35;11.70;72.10
27368;DHT22;14839;48.106;11.618;2024-02-26T15:37:02;11.70;72.40
27368;DHT22;14839;48.106;11.618;2024-02-26T15:39:27;11.50;73.10
27368;DHT22;14839;48.106;11.618;2024-02-26T15:41:53;11.50;73.90
27368;DHT22;14839;48.106;11.618;2024-02-26T15:44:19;11.50;73.70
27368;DHT22;14839;48.106;11.618;2024-02-26T15:46:44;11.40;74.60
27368;DHT22;14839;48.106;11.618;2024-02-26T15:49:10;11.30;73.70
27368;DHT22;14839;48.106;11.618;2024-02-26T15:51:36;11.30;73.90
27368;DHT22;14839;48.106;11.618;2024-02-26T15:54:02;11.20;74.30
27368;DHT22;14839;48.106;11.618;2024-02-26T15:56:28;11.20;74.20
27368;DHT22;14839;48.106;11.618;2024-02-26T15:58:54;11.20;74.80
27368;DHT22;14839;48.106;11.618;2024-02-26T16:01:19;11.10;74.80
27368;DHT22;14839;48.106;11.618;2024-02-26T16:03:45;11.10;75.20
27368;DHT22;14839;48.106;11.618;2024-02-26T16:06:21;11.00;75.50
27368;DHT22;14839;48.106;11.618;2024-02-26T16:08:48;10.90;75.50
27368;DHT22;14839;48.106;11.618;2024-02-26T16:11:13;10.90;75.20
27368;DHT22;14839;48.106;11.618;2024-02-26T16:13:39;10.90;74.90
27368;DHT22;14839;48.106;11.618;2024-02-26T16:16:13;10.90;74.30
27368;DHT22;14839;48.106;11.618;2024-02-26T16:18:42;10.90;74.60
27368;DHT22;14839;48.106;11.618;2024-02-26T16:21:08;10.80;74.80
27368;DHT22;14839;48.106;11.618;2024-02-26T16:23:33;10.80;74.90
27368;DHT22;14839;48.106;11.618;2024-02-26T16:25:59;10.80;75.10
27368;DHT22;14839;48.106;11.618;2024-02-26T16:28:25;10.80;74.30
27368;DHT22;14839;48.106;11.618;2024-02-26T16:30:52;10.80;74.00
27368;DHT22;14839;48.106;11.618;2024-02-26T16:33:18;10.80;74.20
27368;DHT22;14839;48.106;11.618;2024-02-26T16:35:44;10.80;74.00
27368;DHT22;14839;48.106;11.618;2024-02-26T16:38:09;10.80;74.00
27368;DHT22;14839;48.106;11.618;2024-02-26T16:40:36;10.80;74.20
27368;DHT22;14839;48.106;11.618;2024-02-26T16:43:02;10.80;74.30
27368;DHT22;14839;48.106;11.618;2024-02-26T16:45:28;10.80;74.80
27368;DHT22;14839;48.106;11.618;2024-02-26T16:47:54;10.70;74.60
27368;DHT22;14839;48.106;11.618;2024-02-26T16:50:20;10.70;75.20
27368;DHT22;14839;48.106;11.618;2024-02-26T16:52:46;10.60;75.70
27368;DHT22;14839;48.106;11.618;2024-02-26T16:55:12;10.60;76.40
27368;DHT22;14839;48.106;11.618;2024-02-26T16:57:39;10.50;76.60
27368;DHT22;14839;48.106;11.618;2024-02-26T17:00:06;10.50;76.70
27368;DHT22;14839;48.106;11.618;2024-02-26T17:02:33;10.40;77.20
27368;DHT22;14839;48.106;11.618;2024-02-26T17:04:59;10.40;77.50
27368;DHT22;14839;48.106;11.618;2024-02-26T17:07:24;10.40;77.60
27368;DHT22;14839;48.106;11.618;2024-02-26T17:09:50;10.30;77.90
27368;DHT22;14839;48.106;11.618;2024-02-26T17:12:15;10.30;78.10
27368;DHT22;14839;48.106;11.618;2024-02-26T17:14:43;10.30;78.20
27368;DHT22;14839;48.106;11.618;2024-02-26T17:17:13;10.30;78.80
27368;DHT22;14839;48.106;11.618;2024-02-26T17:19:39;10.20;79.10
27368;DHT22;14839;48.106;11.618;2024-02-26T17:22:05;10.20;79.40
27368;DHT22;14839;48.106;11.618;2024-02-26T17:24:32;10.20;79.60
27368;DHT22;14839;48.106;11.618;2024-02-26T17:26:58;10.20;79.60
27368;DHT22;14839;48.106;11.618;2024-02-26T17:29:23;10.20;80.20
27368;DHT22;14839;48.106;11.618;2024-02-26T17:31:49;10.20;80.30
27368;DHT22;14839;48.106;11.618;2024-02-26T17:34:15;10.20;80.60
27368;DHT22;14839;48.106;11.618;2024-02-26T17:36:41;10.10;80.80
27368;DHT22;14839;48.106;11.618;2024-02-26T17:39:07;10.20;80.60
27368;DHT22;14839;48.106;11.618;2024-02-26T17:41:33;10.20;80.80
27368;DHT22;14839;48.106;11.618;2024-02-26T17:43:58;10.10;80.90
27368;DHT22;14839;48.106;11.618;2024-02-26T17:46:24;10.10;81.10
27368;DHT22;14839;48.106;11.618;2024-02-26T17:48:50;10.10;81.20
27368;DHT22;14839;48.106;11.618;2024-02-26T17:51:15;10.10;81.40
27368;DHT22;14839;48.106;11.618;2024-02-26T17:53:41;10.10;81.50
27368;DHT22;14839;48.106;11.618;2024-02-26T17:56:07;10.00;81.70
27368;DHT22;14839;48.106;11.618;2024-02-26T17:58:32;10.00;81.80
27368;DHT22;14839;48.106;11.618;2024-02-26T18:00:58;10.00;82.30
27368;DHT22;14839;48.106;11.618;2024-02-26T18:03:24;9.90;82.90
27368;DHT22;14839;48.106;11.618;2024-02-26T18:05:50;9.80;83.20
27368;DHT22;14839;48.106;11.618;2024-02-26T18:08:15;9.80;83.00
27368;DHT22;14839;48.106;11.618;2024-02-26T18:10:47;9.80;83.00
27368;DHT22;14839;48.106;11.618;2024-02-26T18:13:13;9.80;83.20
27368;DHT22;14839;48.106;11.618;2024-02-26T18:15:39;9.70;83.30
27368;DHT22;14839;48.106;11.618;2024-02-26T18:18:04;9.60;84.10
27368;DHT22;14839;48.106;11.618;2024-02-26T18:20:31;9.60;84.70
27368;DHT22;14839;48.106;11.618;2024-02-26T18:22:56;9.50;85.10
27368;DHT22;14839;48.106;11.618;2024-02-26T18:25:22;9.50;85.30
27368;DHT22;14839;48.106;11.618;2024-02-26T18:27:50;9.40;85.90
27368;DHT22;14839;48.106;11.618;2024-02-26T18:30:17;9.40;86.30
27368;DHT22;14839;48.106;11.618;2024-02-26T18:32:42;9.30;86.60
27368;DHT22;14839;48.106;11.618;2024-02-26T18:35:11;9.20;87.40
27368;DHT22;14839;48.106;11.618;2024-02-26T18:37:37;9.20;87.70
27368;DHT22;14839;48.106;11.618;2024-02-26T18:40:03;9.10;88.10
27368;DHT22;14839;48.106;11.618;2024-02-26T18:42:33;9.10;88.40
27368;DHT22;14839;48.106;11.618;2024-02-26T18:45:03;9.10;88.90
27368;DHT22;14839;48.106;11.618;2024-02-26T18:47:29;9.10;88.70
27368;DHT22;14839;48.106;11.618;2024-02-26T18:49:56;9.00;89.20
27368;DHT22;14839;48.106;11.618;2024-02-26T18:52:23;9.00;89.60
27368;DHT22;14839;48.106;11.618;2024-02-26T18:54:48;8.90;89.90
27368;DHT22;14839;48.106;11.618;2024-02-26T18:57:14;8.90;90.10
27368;DHT22;14839;48.106;11.618;2024-02-26T18:59:40;8.90;90.30
27368;DHT22;14839;48.106;11.618;2024-02-26T19:02:08;8.80;90.40
27368;DHT22;14839;48.106;11.618;2024-02-26T19:04:34;8.80;90.60
27368;DHT22;14839;48.106;11.618;2024-02-26T19:06:59;8.80;90.60
27368;DHT22;14839;48.106;11.618;2024-02-26T19:09:25;8.90;90.50
27368;DHT22;14839;48.106;11.618;2024-02-26T19:11:50;8.90;90.50
27368;DHT22;14839;48.106;11.618;2024-02-26T19:14:18;8.90;90.50
27368;DHT22;14839;48.106;11.618;2024-02-26T19:16:44;8.80;90.50
27368;DHT22;14839;48.106;11.618;2024-02-26T19:19:09;8.80;90.60
27368;DHT22;14839;48.106;11.618;2024-02-26T19:21:35;8.70;90.90
27368;DHT22;14839;48.106;11.618;2024-02-26T19:24:01;8.70;90.80
27368;DHT22;14839;48.106;11.618;2024-02-26T19:26:29;8.70;90.70
27368;DHT22;14839;48.106;11.618;2024-02-26T19:28:55;8.70;91.00
27368;DHT22;14839;48.106;11.618;2024-02-26T19:31:21;8.60;91.10
27368;DHT22;14839;48.106;11.618;2024-02-26T19:33:46;8.60;91.20
27368;DHT22;14839;48.106;11.618;2024-02-26T19:36:12;8.50;91.40
27368;DHT22;14839;48.106;11.618;2024-02-26T19:38:38;8.40;91.50
27368;DHT22;14839;48.106;11.618;2024-02-26T19:41:04;8.40;91.90
27368;DHT22;14839;48.106;11.618;2024-02-26T19:43:30;8.30;92.10
27368;DHT22;14839;48.106;11.618;2024-02-26T19:45:55;8.20;92.20
27368;DHT22;14839;48.106;11.618;2024-02-26T19:48:22;8.20;92.40
27368;DHT22;14839;48.106;11.618;2024-02-26T19:50:48;8.10;92.50
27368;DHT22;14839;48.106;11.618;2024-02-26T19:53:13;8.00;92.70
27368;DHT22;14839;48.106;11.618;2024-02-26T19:55:39;7.90;93.30
27368;DHT22;14839;48.106;11.618;2024-02-26T19:58:05;7.80;93.20
27368;DHT22;14839;48.106;11.618;2024-02-26T20:00:30;7.70;93.60
27368;DHT22;14839;48.106;11.618;2024-02-26T20:02:56;7.60;93.90
27368;DHT22;14839;48.106;11.618;2024-02-26T20:05:22;7.50;94.20
27368;DHT22;14839;48.106;11.618;2024-02-26T20:07:48;7.50;94.40
27368;DHT22;14839;48.106;11.618;2024-02-26T20:10:14;7.40;94.60
27368;DHT22;14839;48.106;11.618;2024-02-26T20:12:39;7.30;94.60
27368;DHT22;14839;48.106;11.618;2024-02-26T20:15:05;7.30;94.60
27368;DHT22;14839;48.106;11.618;2024-02-26T20:17:31;7.20;94.60
27368;DHT22;14839;48.106;11.618;2024-02-26T20:19:57;7.20;94.60
27368;DHT22;14839;48.106;11.618;2024-02-26T20:22:23;7.10;94.60
27368;DHT22;14839;48.106;11.618;2024-02-26T20:24:49;7.10;94.60